createdAt,value
2022-10-17T00:00:23.289Z,98.99
2022-10-17T00:01:23.398Z,99.10
2022-10-17T00:02:23.269Z,99.14
2022-10-17T00:03:23.259Z,99.04
2022-10-17T00:04:23.268Z,99.04
2022-10-17T00:05:23.251Z,99.14
2022-10-17T00:06:23.231Z,99.14
2022-10-17T00:07:23.220Z,99.14
2022-10-17T00:08:23.233Z,99.35
2022-10-17T00:09:23.221Z,99.35
2022-10-17T00:10:23.191Z,99.35
2022-10-17T00:11:23.175Z,99.35
2022-10-17T00:12:23.164Z,99.35
2022-10-17T00:13:23.285Z,99.35
2022-10-17T00:14:23.162Z,99.44
2022-10-17T00:15:23.136Z,99.44
2022-10-17T00:16:23.121Z,99.55
2022-10-17T00:17:23.123Z,99.44
2022-10-17T00:18:23.118Z,99.55
2022-10-17T00:19:23.101Z,99.44
2022-10-17T00:20:23.093Z,99.44
2022-10-17T00:21:23.063Z,99.49
2022-10-17T00:22:23.122Z,99.49
2022-10-17T00:23:23.042Z,99.60
2022-10-17T00:24:23.071Z,99.60
2022-10-17T00:25:23.034Z,99.60
2022-10-17T00:26:23.024Z,99.49
2022-10-17T00:27:23.015Z,99.49
2022-10-17T00:28:23.045Z,99.49
2022-10-17T00:29:23.012Z,99.49
2022-10-17T00:30:22.985Z,99.39
2022-10-17T00:31:22.955Z,99.39
2022-10-17T00:32:22.947Z,99.39
2022-10-17T00:33:22.936Z,99.49
2022-10-17T00:34:22.946Z,99.49
2022-10-17T00:35:22.915Z,99.49
2022-10-17T00:36:22.928Z,99.60
2022-10-17T00:37:22.886Z,99.54
2022-10-17T00:38:22.878Z,99.54
2022-10-17T00:39:22.887Z,99.44
2022-10-17T00:40:22.874Z,99.44
2022-10-17T00:41:22.857Z,99.33
2022-10-17T00:42:22.838Z,99.33
2022-10-17T00:43:22.847Z,99.24
2022-10-17T00:44:22.829Z,99.24
2022-10-17T00:45:22.809Z,99.24
2022-10-17T00:46:22.829Z,99.24
2022-10-17T00:47:22.820Z,99.24
2022-10-17T00:48:23.371Z,99.24
2022-10-17T00:49:22.769Z,99.24
2022-10-17T00:50:22.759Z,99.24
2022-10-17T00:51:22.752Z,99.13
2022-10-17T00:52:22.731Z,99.04
2022-10-17T00:53:22.750Z,99.04
2022-10-17T00:54:22.712Z,98.93
2022-10-17T00:55:22.715Z,98.83
2022-10-17T00:56:22.693Z,98.83
2022-10-17T00:57:22.682Z,98.83
2022-10-17T00:58:22.683Z,98.83
2022-10-17T00:59:22.673Z,98.83
2022-10-17T01:00:22.652Z,98.93
2022-10-17T01:01:22.697Z,98.93
2022-10-17T01:02:22.631Z,99.04
2022-10-17T01:03:22.630Z,98.93
2022-10-17T01:04:22.622Z,98.97
2022-10-17T01:05:22.593Z,99.08
2022-10-17T01:06:22.614Z,99.18
2022-10-17T01:07:22.574Z,99.28
2022-10-17T01:08:22.575Z,99.38
2022-10-17T01:09:22.555Z,99.38
2022-10-17T01:11:22.542Z,99.28
2022-10-17T01:12:22.535Z,99.28
2022-10-17T01:13:22.511Z,99.18
2022-10-17T01:14:22.506Z,99.18
2022-10-17T01:15:22.515Z,99.18
2022-10-17T01:16:22.486Z,99.18
2022-10-17T01:17:22.475Z,99.08
2022-10-17T01:18:22.450Z,99.08
2022-10-17T01:19:22.486Z,98.97
2022-10-17T01:20:22.436Z,98.88
2022-10-17T01:21:22.456Z,98.77
2022-10-17T01:22:22.416Z,98.77
2022-10-17T01:23:22.407Z,98.77
2022-10-17T01:24:22.388Z,98.82
2022-10-17T01:25:22.397Z,99.02
2022-10-17T01:26:22.389Z,99.02
2022-10-17T01:27:22.358Z,99.13
2022-10-17T01:28:22.430Z,99.22
2022-10-17T01:29:22.348Z,99.22
2022-10-17T01:30:22.328Z,99.22
2022-10-17T01:31:22.338Z,99.22
2022-10-17T01:32:22.337Z,99.33
2022-10-17T01:33:22.288Z,99.43
2022-10-17T01:34:22.290Z,99.43
2022-10-17T01:35:22.272Z,99.53
2022-10-17T01:36:22.269Z,99.53
2022-10-17T01:37:22.269Z,99.53
2022-10-17T01:38:22.240Z,99.53
2022-10-17T01:39:22.244Z,99.63
2022-10-17T01:40:22.230Z,99.63
2022-10-17T01:41:22.201Z,99.74
2022-10-17T01:42:22.211Z,99.74
2022-10-17T01:43:22.191Z,99.84
2022-10-17T01:44:22.201Z,99.94
2022-10-17T01:45:22.172Z,99.94
2022-10-17T01:46:22.151Z,99.99
2022-10-17T01:47:22.143Z,99.99
2022-10-17T01:48:22.153Z,99.99
2022-10-17T01:49:22.132Z,99.99
2022-10-17T01:50:22.122Z,99.99
2022-10-17T01:51:22.113Z,99.99
2022-10-17T01:52:22.092Z,99.99
2022-10-17T01:53:22.103Z,99.99
2022-10-17T01:54:22.084Z,99.99
2022-10-17T01:55:22.062Z,99.99
2022-10-17T01:56:22.054Z,99.99
2022-10-17T01:57:22.033Z,99.99
2022-10-17T01:58:22.024Z,99.99
2022-10-17T01:59:22.044Z,99.99
2022-10-17T02:00:22.014Z,99.99
2022-10-17T02:01:22.062Z,99.99
2022-10-17T02:02:22.004Z,99.99
2022-10-17T02:03:21.978Z,99.99
2022-10-17T02:04:21.986Z,99.99
2022-10-17T02:05:21.955Z,99.99
2022-10-17T02:06:21.945Z,99.99
2022-10-17T02:07:21.937Z,99.99
2022-10-17T02:08:21.934Z,99.99
2022-10-17T02:09:21.937Z,99.99
2022-10-17T02:10:21.896Z,99.99
2022-10-17T02:11:21.888Z,99.99
2022-10-17T02:12:21.876Z,99.99
2022-10-17T02:13:21.874Z,99.99
2022-10-17T02:14:21.889Z,99.99
2022-10-17T02:15:21.840Z,99.99
2022-10-17T02:16:21.856Z,99.99
2022-10-17T02:17:21.828Z,99.99
2022-10-17T02:18:21.846Z,99.99
2022-10-17T02:19:21.802Z,99.99
2022-10-17T02:20:21.798Z,99.99
2022-10-17T02:21:21.778Z,99.99
2022-10-17T02:22:21.778Z,99.99
2022-10-17T02:23:21.762Z,99.99
2022-10-17T02:24:21.762Z,99.99
2022-10-17T02:25:21.737Z,99.99
2022-10-17T02:26:21.730Z,99.99
2022-10-17T02:27:21.730Z,99.99
2022-10-17T02:28:21.751Z,99.99
2022-10-17T02:29:21.701Z,99.99
2022-10-17T02:30:21.715Z,99.99
2022-10-17T02:31:21.691Z,99.99
2022-10-17T02:33:21.661Z,99.99
2022-10-17T02:34:21.640Z,99.99
2022-10-17T02:35:21.631Z,99.99
2022-10-17T02:36:21.622Z,99.99
2022-10-17T02:37:21.631Z,99.99
2022-10-17T02:38:21.601Z,99.99
2022-10-17T02:39:21.583Z,99.99
2022-10-17T02:40:21.572Z,99.99
2022-10-17T02:41:21.595Z,99.99
2022-10-17T02:42:21.594Z,99.99
2022-10-17T02:43:21.563Z,99.99
2022-10-17T02:44:21.536Z,99.99
2022-10-17T02:45:21.536Z,99.99
2022-10-17T02:46:21.513Z,99.99
2022-10-17T02:47:21.504Z,99.99
2022-10-17T02:48:21.509Z,99.99
2022-10-17T02:49:21.482Z,99.99
2022-10-17T02:50:21.549Z,99.99
2022-10-17T02:51:21.453Z,99.99
2022-10-17T02:52:21.473Z,99.99
2022-10-17T02:53:21.437Z,99.99
2022-10-17T02:54:21.445Z,99.99
2022-10-17T02:55:21.424Z,99.99
2022-10-17T02:56:21.416Z,99.99
2022-10-17T02:57:21.395Z,99.99
2022-10-17T02:58:21.396Z,99.99
2022-10-17T02:59:21.426Z,99.99
2022-10-17T03:00:21.356Z,99.99
2022-10-17T03:01:21.386Z,99.99
2022-10-17T03:02:21.355Z,99.99
2022-10-17T03:03:21.354Z,99.99
2022-10-17T03:04:21.321Z,99.99
2022-10-17T03:05:21.316Z,99.99
2022-10-17T03:06:21.307Z,99.99
2022-10-17T03:07:21.298Z,99.99
2022-10-17T03:08:21.291Z,99.99
2022-10-17T03:09:21.288Z,99.99
2022-10-17T03:10:21.265Z,99.99
2022-10-17T03:11:21.238Z,99.99
2022-10-17T03:12:21.238Z,99.99
2022-10-17T03:13:21.230Z,99.99
2022-10-17T03:14:21.238Z,99.99
2022-10-17T03:15:21.197Z,99.99
2022-10-17T03:16:21.209Z,99.99
2022-10-17T03:17:21.179Z,99.99
2022-10-17T03:18:21.167Z,99.99
2022-10-17T03:19:21.167Z,99.99
2022-10-17T03:20:21.140Z,99.99
2022-10-17T03:21:21.150Z,99.99
2022-10-17T03:22:21.121Z,99.99
2022-10-17T03:23:21.121Z,99.99
2022-10-17T03:24:21.132Z,99.99
2022-10-17T03:25:21.088Z,99.99
2022-10-17T03:26:21.081Z,99.99
2022-10-17T03:27:21.071Z,99.99
2022-10-17T03:28:21.092Z,99.99
2022-10-17T03:29:21.052Z,99.99
2022-10-17T03:30:21.062Z,99.99
2022-10-17T03:31:21.022Z,99.99
2022-10-17T03:32:21.030Z,99.99
2022-10-17T03:33:21.002Z,99.99
2022-10-17T03:34:21.003Z,99.99
2022-10-17T03:35:21.001Z,99.99
2022-10-17T03:36:20.977Z,99.99
2022-10-17T03:37:21.003Z,99.99
2022-10-17T03:38:20.964Z,99.99
2022-10-17T03:39:20.934Z,99.99
2022-10-17T03:40:20.946Z,99.99
2022-10-17T03:41:20.914Z,99.99
2022-10-17T03:42:20.914Z,99.99
2022-10-17T03:43:20.902Z,99.99
2022-10-17T03:44:20.905Z,99.99
2022-10-17T03:45:20.877Z,99.99
2022-10-17T03:46:20.958Z,99.99
2022-10-17T03:47:20.865Z,99.99
2022-10-17T03:48:20.845Z,99.99
2022-10-17T03:49:20.847Z,99.99
2022-10-17T03:50:20.836Z,99.99
2022-10-17T03:51:20.806Z,99.99
2022-10-17T03:52:20.796Z,99.99
2022-10-17T03:53:20.809Z,99.99
2022-10-17T03:54:20.797Z,99.99
2022-10-17T03:55:20.777Z,99.99
2022-10-17T03:56:20.787Z,99.99
2022-10-17T03:57:20.764Z,99.99
2022-10-17T03:58:20.748Z,99.99
2022-10-17T03:59:20.729Z,99.99
2022-10-17T04:00:20.738Z,99.99
2022-10-17T04:01:20.777Z,99.99
2022-10-17T04:02:20.709Z,99.99
2022-10-17T04:03:20.689Z,99.99
2022-10-17T04:04:20.690Z,99.99
2022-10-17T04:05:20.669Z,99.99
2022-10-17T04:06:20.694Z,99.99
2022-10-17T04:07:20.695Z,99.99
2022-10-17T04:08:20.641Z,99.99
2022-10-17T04:09:20.648Z,99.99
2022-10-17T04:10:20.620Z,99.99
2022-10-17T04:11:20.615Z,99.99
2022-10-17T04:12:20.580Z,99.99
2022-10-17T04:13:20.601Z,99.99
2022-10-17T04:14:20.581Z,99.99
2022-10-17T04:15:20.568Z,99.99
2022-10-17T04:16:20.561Z,99.99
2022-10-17T04:17:20.548Z,99.99
2022-10-17T04:18:20.551Z,99.99
2022-10-17T04:19:20.529Z,99.99
2022-10-17T04:20:20.502Z,99.99
2022-10-17T04:21:20.492Z,99.99
2022-10-17T04:22:20.494Z,99.99
2022-10-17T04:23:20.507Z,99.99
2022-10-17T04:24:20.472Z,99.99
2022-10-17T04:25:20.472Z,99.99
2022-10-17T04:26:20.451Z,99.99
2022-10-17T04:27:20.424Z,99.99
2022-10-17T04:28:20.462Z,99.99
2022-10-17T04:29:20.414Z,99.99
2022-10-17T04:30:20.433Z,99.99
2022-10-17T04:31:20.375Z,99.99
2022-10-17T04:32:20.408Z,99.99
2022-10-17T04:33:20.367Z,99.99
2022-10-17T04:34:20.365Z,99.99
2022-10-17T04:35:20.355Z,99.99
2022-10-17T04:36:20.334Z,99.99
2022-10-17T04:37:20.344Z,99.99
2022-10-17T04:38:23.722Z,99.99
2022-10-17T04:39:21.296Z,99.99
2022-10-17T04:40:20.286Z,99.99
2022-10-17T04:41:20.285Z,99.99
2022-10-17T04:42:20.266Z,99.99
2022-10-17T04:43:20.266Z,99.99
2022-10-17T04:44:20.244Z,99.99
2022-10-17T04:45:20.248Z,99.99
2022-10-17T04:46:20.256Z,99.99
2022-10-17T04:47:20.217Z,99.99
2022-10-17T04:48:20.217Z,99.99
2022-10-17T04:49:20.188Z,99.99
2022-10-17T04:50:20.189Z,99.99
2022-10-17T04:51:23.106Z,99.99
2022-10-17T04:52:21.169Z,99.99
2022-10-17T04:53:20.179Z,99.99
2022-10-17T04:54:20.140Z,99.99
2022-10-17T04:55:20.140Z,99.99
2022-10-17T04:56:20.131Z,99.99
2022-10-17T04:57:20.101Z,99.99
2022-10-17T04:58:20.101Z,99.99
2022-10-17T04:59:20.110Z,99.99
2022-10-17T05:00:20.107Z,99.99
2022-10-17T05:01:20.121Z,99.99
2022-10-17T05:02:20.070Z,99.99
2022-10-17T05:03:20.058Z,99.99
2022-10-17T05:04:23.898Z,99.99
2022-10-17T05:05:20.030Z,99.99
2022-10-17T05:06:20.023Z,99.99
2022-10-17T05:07:20.005Z,99.99
2022-10-17T05:08:19.993Z,99.99
2022-10-17T05:09:19.989Z,99.99
2022-10-17T05:10:20.002Z,99.99
2022-10-17T05:11:19.953Z,99.99
2022-10-17T05:12:19.974Z,99.99
2022-10-17T05:13:19.962Z,99.99
2022-10-17T05:14:19.922Z,99.99
2022-10-17T05:15:19.922Z,99.99
2022-10-17T05:16:19.918Z,99.99
2022-10-17T05:17:19.882Z,99.99
2022-10-17T05:18:19.891Z,99.99
2022-10-17T05:19:19.874Z,99.99
2022-10-17T05:20:19.873Z,99.99
2022-10-17T05:21:19.916Z,99.99
2022-10-17T05:22:19.847Z,99.99
2022-10-17T05:23:19.836Z,99.99
2022-10-17T05:24:19.827Z,99.99
2022-10-17T05:25:19.813Z,99.99
2022-10-17T05:26:19.814Z,99.99
2022-10-17T05:27:19.804Z,99.99
2022-10-17T05:28:19.785Z,99.99
2022-10-17T05:29:19.755Z,99.99
2022-10-17T05:30:19.766Z,99.99
2022-10-17T05:31:19.745Z,99.99
2022-10-17T05:32:19.748Z,99.99
2022-10-17T05:33:19.726Z,99.99
2022-10-17T05:34:19.706Z,99.99
2022-10-17T05:35:19.706Z,99.99
2022-10-17T05:36:19.695Z,99.99
2022-10-17T05:37:19.677Z,99.99
2022-10-17T05:38:19.678Z,99.99
2022-10-17T05:39:19.652Z,99.99
2022-10-17T05:40:19.649Z,99.99
2022-10-17T05:41:19.655Z,99.99
2022-10-17T05:42:19.721Z,99.99
2022-10-17T05:43:19.615Z,99.99
2022-10-17T05:44:19.625Z,99.99
2022-10-17T05:45:19.598Z,99.99
2022-10-17T05:46:19.578Z,99.99
2022-10-17T05:47:19.588Z,99.99
2022-10-17T05:48:19.561Z,99.99
2022-10-17T05:49:32.649Z,99.99
2022-10-17T05:50:20.540Z,99.99
2022-10-17T05:51:19.529Z,99.99
2022-10-17T05:52:19.510Z,99.99
2022-10-17T05:53:19.547Z,99.99
2022-10-17T05:54:19.527Z,99.99
2022-10-17T05:55:19.520Z,99.99
2022-10-17T05:56:19.480Z,99.99
2022-10-17T05:57:19.495Z,99.99
2022-10-17T05:58:22.401Z,99.99
2022-10-17T05:59:20.470Z,99.99
2022-10-17T06:00:19.531Z,99.99
2022-10-17T06:01:19.432Z,99.99
2022-10-17T06:02:19.531Z,99.99
2022-10-17T06:03:19.422Z,99.99
2022-10-17T06:04:19.371Z,99.99
2022-10-17T06:05:19.443Z,99.99
2022-10-17T06:06:19.364Z,99.99
2022-10-17T06:07:19.374Z,99.99
2022-10-17T06:08:19.350Z,99.99
2022-10-17T06:09:19.353Z,99.99
2022-10-17T06:10:19.312Z,99.99
2022-10-17T06:11:19.303Z,99.99
2022-10-17T06:12:19.323Z,99.99
2022-10-17T06:13:19.295Z,99.99
2022-10-17T06:14:19.274Z,99.99
2022-10-17T06:15:19.285Z,99.99
2022-10-17T06:16:19.261Z,99.99
2022-10-17T06:17:19.254Z,99.99
2022-10-17T06:18:19.230Z,99.99
2022-10-17T06:19:19.241Z,99.99
2022-10-17T06:20:19.216Z,99.99
2022-10-17T06:21:19.195Z,99.99
2022-10-17T06:22:19.227Z,99.99
2022-10-17T06:23:19.204Z,99.99
2022-10-17T06:24:19.186Z,99.99
2022-10-17T06:25:19.155Z,99.99
2022-10-17T06:26:19.156Z,99.99
2022-10-17T06:27:19.146Z,99.99
2022-10-17T06:28:19.120Z,99.99
2022-10-17T06:29:19.135Z,99.99
2022-10-17T06:30:19.098Z,99.99
2022-10-17T06:31:19.097Z,99.99
2022-10-17T06:32:19.090Z,99.99
2022-10-17T06:33:19.069Z,99.99
2022-10-17T06:34:19.080Z,99.99
2022-10-17T06:35:19.056Z,99.99
2022-10-17T06:36:19.068Z,99.99
2022-10-17T06:37:19.037Z,99.99
2022-10-17T06:38:19.028Z,99.99
2022-10-17T06:39:19.009Z,99.99
2022-10-17T06:40:18.999Z,99.99
2022-10-17T06:41:19.004Z,99.99
2022-10-17T06:42:19.011Z,99.99
2022-10-17T06:43:18.969Z,99.99
2022-10-17T06:44:18.970Z,99.99
2022-10-17T06:45:18.940Z,99.99
2022-10-17T06:46:18.933Z,99.99
2022-10-17T06:47:20.028Z,99.99
2022-10-17T06:48:18.940Z,99.99
2022-10-17T06:49:18.909Z,99.99
2022-10-17T06:50:18.901Z,99.99
2022-10-17T06:51:18.901Z,99.99
2022-10-17T06:52:18.860Z,99.99
2022-10-17T06:53:18.871Z,99.99
2022-10-17T06:54:18.862Z,99.99
2022-10-17T06:55:22.580Z,99.99
2022-10-17T06:56:18.811Z,99.99
2022-10-17T06:57:18.820Z,99.99
2022-10-17T06:58:18.818Z,99.99
2022-10-17T06:59:18.802Z,99.99
2022-10-17T07:00:18.782Z,99.99
2022-10-17T07:01:18.774Z,99.99
2022-10-17T07:02:18.783Z,99.99
2022-10-17T07:03:18.764Z,99.99
2022-10-17T07:04:18.891Z,99.99
2022-10-17T07:05:18.734Z,99.99
2022-10-17T07:06:18.724Z,99.99
2022-10-17T07:07:18.714Z,99.99
2022-10-17T07:08:18.697Z,99.99
2022-10-17T07:09:18.685Z,99.99
2022-10-17T07:10:18.688Z,99.99
2022-10-17T07:11:18.664Z,99.99
2022-10-17T07:12:18.656Z,99.99
2022-10-17T07:13:18.635Z,99.99
2022-10-17T07:14:18.625Z,99.99
2022-10-17T07:15:18.637Z,99.99
2022-10-17T07:16:18.606Z,99.99
2022-10-17T07:17:18.617Z,99.99
2022-10-17T07:18:18.604Z,99.99
2022-10-17T07:19:18.577Z,99.99
2022-10-17T07:20:18.566Z,99.99
2022-10-17T07:21:18.564Z,99.99
2022-10-17T07:22:18.566Z,99.99
2022-10-17T07:23:18.557Z,99.99
2022-10-17T07:24:18.526Z,99.99
2022-10-17T07:25:18.536Z,99.99
2022-10-17T07:26:18.507Z,99.99
2022-10-17T07:27:18.487Z,99.99
2022-10-17T07:28:18.487Z,99.99
2022-10-17T07:29:18.498Z,99.99
2022-10-17T07:30:18.478Z,99.99
2022-10-17T07:31:18.459Z,99.99
2022-10-17T07:32:18.428Z,99.99
2022-10-17T07:33:18.452Z,99.99
2022-10-17T07:34:18.444Z,99.99
2022-10-17T07:35:18.399Z,99.99
2022-10-17T07:36:18.394Z,99.99
2022-10-17T07:37:18.379Z,99.99
2022-10-17T07:38:18.373Z,99.99
2022-10-17T07:39:18.390Z,99.99
2022-10-17T07:40:18.360Z,99.99
2022-10-17T07:41:20.929Z,99.99
2022-10-17T07:42:18.328Z,99.99
2022-10-17T07:43:18.339Z,99.99
2022-10-17T07:44:18.331Z,99.99
2022-10-17T07:45:18.301Z,99.99
2022-10-17T07:46:18.297Z,99.99
2022-10-17T07:47:18.293Z,99.99
2022-10-17T07:48:18.261Z,99.99
2022-10-17T07:49:18.270Z,99.99
2022-10-17T07:50:18.244Z,99.99
2022-10-17T07:51:18.232Z,99.99
2022-10-17T07:52:18.252Z,99.95
2022-10-17T07:53:18.223Z,99.85
2022-10-17T07:54:18.209Z,99.75
2022-10-17T07:55:18.183Z,99.44
2022-10-17T07:56:18.190Z,99.24
2022-10-17T07:57:18.184Z,98.84
2022-10-17T07:58:18.154Z,98.59
2022-10-17T07:59:18.165Z,98.49
2022-10-17T08:00:18.136Z,98.18
2022-10-17T08:01:18.147Z,97.98
2022-10-17T08:02:18.110Z,97.78
2022-10-17T08:03:18.125Z,97.53
2022-10-17T08:04:18.120Z,97.33
2022-10-17T08:05:18.116Z,97.33
2022-10-17T08:06:18.076Z,97.13
2022-10-17T08:07:22.954Z,97.02
2022-10-17T08:08:19.056Z,96.92
2022-10-17T08:09:18.076Z,96.82
2022-10-17T08:10:18.040Z,96.51
2022-10-17T08:11:18.037Z,96.17
2022-10-17T08:12:18.017Z,96.07
2022-10-17T08:13:18.017Z,95.66
2022-10-17T08:14:17.987Z,95.36
2022-10-17T08:15:17.998Z,95.15
2022-10-17T08:16:17.957Z,95.26
2022-10-17T08:17:17.948Z,95.15
2022-10-17T08:18:17.947Z,95.15
2022-10-17T08:19:17.950Z,95.01
2022-10-17T08:20:17.938Z,94.60
2022-10-17T08:21:17.908Z,94.60
2022-10-17T08:22:17.899Z,94.60
2022-10-17T08:23:17.917Z,94.60
2022-10-17T08:24:17.876Z,94.50
2022-10-17T08:25:17.870Z,94.40
2022-10-17T08:26:17.860Z,94.15
2022-10-17T08:27:17.848Z,93.85
2022-10-17T08:28:17.850Z,93.55
2022-10-17T08:29:18.260Z,93.24
2022-10-17T08:30:17.811Z,93.04
2022-10-17T08:31:17.802Z,92.94
2022-10-17T08:32:17.833Z,92.94
2022-10-17T08:33:17.802Z,92.74
2022-10-17T08:34:17.774Z,92.84
2022-10-17T08:35:17.762Z,92.84
2022-10-17T08:36:17.752Z,92.74
2022-10-17T08:37:17.761Z,92.69
2022-10-17T08:38:20.830Z,92.69
2022-10-17T08:39:17.722Z,92.60
2022-10-17T08:40:17.704Z,92.49
2022-10-17T08:41:17.703Z,92.60
2022-10-17T08:42:17.684Z,92.49
2022-10-17T08:43:17.683Z,92.40
2022-10-17T08:44:17.675Z,92.25
2022-10-17T08:45:17.654Z,92.05
2022-10-17T08:46:17.676Z,92.05
2022-10-17T08:47:17.624Z,91.85
2022-10-17T08:48:17.634Z,91.74
2022-10-17T08:49:17.630Z,91.74
2022-10-17T08:50:17.608Z,91.85
2022-10-17T08:51:17.626Z,91.80
2022-10-17T08:52:17.586Z,91.60
2022-10-17T08:53:17.564Z,91.50
2022-10-17T08:54:17.574Z,90.99
2022-10-17T08:55:17.558Z,90.69
2022-10-17T08:56:19.786Z,90.69
2022-10-17T08:57:18.516Z,90.75
2022-10-17T08:58:17.505Z,90.34
2022-10-17T08:59:17.555Z,90.14
2022-10-17T09:00:17.484Z,89.84
2022-10-17T09:01:17.505Z,89.64
2022-10-17T09:02:17.478Z,89.29
2022-10-17T09:03:17.511Z,88.89
2022-10-17T09:04:17.562Z,88.89
2022-10-17T09:05:18.075Z,88.89
2022-10-17T09:06:17.448Z,88.34
2022-10-17T09:07:17.409Z,88.34
2022-10-17T09:08:17.409Z,88.04
2022-10-17T09:09:17.400Z,87.94
2022-10-17T09:10:17.384Z,87.74
2022-10-17T09:11:17.399Z,87.54
2022-10-17T09:12:17.360Z,87.60
2022-10-17T09:13:17.355Z,87.40
2022-10-17T09:14:17.350Z,87.29
2022-10-17T09:15:17.341Z,87.29
2022-10-17T09:16:17.310Z,87.19
2022-10-17T09:17:17.304Z,86.85
2022-10-17T09:18:19.833Z,86.65
2022-10-17T09:19:17.302Z,86.24
2022-10-17T09:20:17.308Z,85.94
2022-10-17T09:21:17.262Z,85.20
2022-10-17T09:22:17.252Z,85.30
2022-10-17T09:23:17.276Z,85.30
2022-10-17T09:24:17.241Z,85.10
2022-10-17T09:25:17.225Z,84.80
2022-10-17T09:26:17.232Z,84.80
2022-10-17T09:27:17.203Z,84.65
2022-10-17T09:28:17.194Z,84.65
2022-10-17T09:29:17.276Z,84.65
2022-10-17T09:30:33.435Z,84.15
2022-10-17T09:31:18.191Z,84.45
2022-10-17T09:32:17.157Z,84.65
2022-10-17T09:33:35.174Z,84.45
2022-10-17T09:34:18.145Z,84.55
2022-10-17T09:35:17.116Z,84.55
2022-10-17T09:36:17.103Z,84.55
2022-10-17T09:37:17.127Z,84.61
2022-10-17T09:38:17.095Z,84.01
2022-10-17T09:39:17.075Z,83.91
2022-10-17T09:40:17.076Z,83.31
2022-10-17T09:41:42.733Z,83.71
2022-10-17T09:42:18.037Z,83.71
2022-10-17T09:43:17.028Z,83.87
2022-10-17T09:44:17.070Z,83.26
2022-10-17T09:45:17.017Z,83.37
2022-10-17T09:46:17.006Z,83.47
2022-10-17T09:47:17.029Z,83.17
2022-10-17T09:48:16.979Z,83.06
2022-10-17T09:49:17.420Z,82.66
2022-10-17T09:50:16.969Z,82.72
2022-10-17T09:51:25.691Z,82.22
2022-10-17T09:52:17.939Z,82.32
2022-10-17T09:53:16.951Z,82.52
2022-10-17T09:54:16.927Z,82.72
2022-10-17T09:55:16.911Z,82.52
2022-10-17T09:56:16.891Z,82.38
2022-10-17T09:57:16.897Z,82.38
2022-10-17T09:58:16.912Z,82.38
2022-10-17T09:59:16.891Z,82.48
2022-10-17T10:00:16.843Z,82.58
2022-10-17T10:01:21.034Z,81.84
2022-10-17T10:02:17.847Z,81.74
2022-10-17T10:03:16.812Z,81.74
2022-10-17T10:04:16.833Z,81.44
2022-10-17T10:05:16.823Z,81.70
2022-10-17T10:06:16.784Z,81.50
2022-10-17T10:07:16.793Z,81.10
2022-10-17T10:08:16.774Z,81.10
2022-10-17T10:09:16.782Z,80.96
2022-10-17T10:10:16.734Z,81.06
2022-10-17T10:11:16.734Z,80.66
2022-10-17T10:12:16.714Z,80.66
2022-10-17T10:13:16.715Z,80.66
2022-10-17T10:14:16.719Z,80.52
2022-10-17T10:15:16.678Z,80.02
2022-10-17T10:16:16.676Z,80.22
2022-10-17T10:17:16.656Z,80.22
2022-10-17T10:18:16.696Z,79.78
2022-10-17T10:19:17.648Z,79.48
2022-10-17T10:20:16.640Z,79.28
2022-10-17T10:21:16.627Z,79.58
2022-10-17T10:22:16.658Z,79.78
2022-10-17T10:23:16.607Z,79.94
2022-10-17T10:24:16.630Z,79.64
2022-10-17T10:25:16.587Z,79.34
2022-10-17T10:26:20.210Z,79.14
2022-10-17T10:27:16.552Z,79.14
2022-10-17T10:28:16.557Z,79.00
2022-10-17T10:29:16.561Z,78.91
2022-10-17T10:30:16.540Z,78.70
2022-10-17T10:31:16.520Z,78.70
2022-10-17T10:32:16.520Z,78.70
2022-10-17T10:33:16.488Z,78.91
2022-10-17T10:34:16.510Z,78.97
2022-10-17T10:35:16.491Z,78.36
2022-10-17T10:36:16.491Z,77.86
2022-10-17T10:37:17.152Z,77.56
2022-10-17T10:38:16.452Z,77.86
2022-10-17T10:39:16.443Z,77.86
2022-10-17T10:40:16.431Z,77.43
2022-10-17T10:41:16.403Z,77.43
2022-10-17T10:42:16.423Z,77.73
2022-10-17T10:43:16.393Z,77.43
2022-10-17T10:44:16.383Z,76.69
2022-10-17T10:45:29.336Z,75.69
2022-10-17T10:46:17.356Z,75.99
2022-10-17T10:47:16.355Z,76.19
2022-10-17T10:48:16.338Z,76.29
2022-10-17T10:49:16.335Z,76.26
2022-10-17T10:50:16.344Z,76.26
2022-10-17T10:51:16.305Z,75.85
2022-10-17T10:52:16.305Z,75.16
2022-10-17T10:53:16.275Z,75.05
2022-10-17T10:54:16.303Z,75.82
2022-10-17T10:55:16.256Z,75.32
2022-10-17T10:56:16.246Z,75.82
2022-10-17T10:57:16.247Z,74.62
2022-10-17T10:58:16.227Z,74.92
2022-10-17T10:59:16.248Z,74.98
2022-10-17T11:00:16.214Z,75.28
2022-10-17T11:01:16.267Z,75.48
2022-10-17T11:02:16.178Z,75.55
2022-10-17T11:03:16.169Z,75.15
2022-10-17T11:04:16.197Z,73.95
2022-10-17T11:05:16.159Z,73.55
2022-10-17T11:06:16.151Z,73.45
2022-10-17T11:07:16.140Z,72.95
2022-10-17T11:08:16.132Z,73.05
2022-10-17T11:09:16.122Z,73.72
2022-10-17T11:10:16.123Z,73.91
2022-10-17T11:11:16.092Z,73.61
2022-10-17T11:12:16.091Z,72.98
2022-10-17T11:13:16.061Z,72.58
2022-10-17T11:14:16.072Z,72.19
2022-10-17T11:15:16.048Z,72.38
2022-10-17T11:16:16.032Z,72.35
2022-10-17T11:17:16.035Z,71.95
2022-10-17T11:18:16.013Z,72.25
2022-10-17T11:19:16.005Z,72.15
2022-10-17T11:20:15.993Z,70.82
2022-10-17T11:21:15.975Z,70.32
2022-10-17T11:22:16.002Z,70.52
2022-10-17T11:23:15.954Z,70.19
2022-10-17T11:24:15.965Z,70.39
2022-10-17T11:25:15.946Z,69.56
2022-10-17T11:26:15.937Z,69.66
2022-10-17T11:27:15.926Z,69.53
2022-10-17T11:28:15.909Z,69.23
2022-10-17T11:29:15.906Z,68.60
2022-10-17T11:30:15.906Z,68.80
2022-10-17T11:31:15.888Z,68.50
2022-10-17T11:32:15.878Z,68.27
2022-10-17T11:33:15.858Z,67.97
2022-10-17T11:34:15.859Z,67.54
2022-10-17T11:35:15.839Z,67.34
2022-10-17T11:36:15.830Z,66.71
2022-10-17T11:37:15.830Z,66.08
2022-10-17T11:38:15.800Z,65.56
2022-10-17T11:39:15.792Z,64.17
2022-10-17T11:40:18.161Z,64.14
2022-10-17T11:41:15.791Z,63.21
2022-10-17T11:42:15.762Z,62.59
2022-10-17T11:43:15.747Z,61.67
2022-10-17T11:44:15.743Z,59.23
2022-10-17T11:45:15.734Z,58.16
2022-10-17T11:46:15.742Z,55.88
2022-10-17T11:47:15.714Z,54.30
2022-10-17T11:48:15.703Z,52.01
2022-10-17T11:49:20.181Z,49.63
2022-10-17T11:52:31.574Z,43.29
2022-10-17T11:53:16.642Z,41.26
2022-10-17T11:54:15.636Z,39.53
2022-10-17T11:55:15.667Z,38.10
2022-10-17T11:56:15.606Z,36.48
2022-10-17T11:57:15.617Z,35.54
2022-10-17T11:58:15.628Z,34.12
2022-10-17T11:59:15.578Z,32.81
2022-10-17T12:00:15.579Z,31.05
2022-10-17T12:01:15.568Z,30.93
2022-10-17T12:02:15.550Z,30.52
2022-10-17T12:03:15.530Z,29.92
2022-10-17T12:04:15.582Z,28.36
2022-10-17T12:05:15.522Z,26.74
2022-10-17T12:06:15.530Z,27.39
2022-10-17T12:07:15.518Z,25.76
2022-10-17T12:08:15.492Z,25.38
2022-10-17T12:09:15.585Z,25.09
2022-10-17T12:10:15.473Z,25.37
2022-10-17T12:11:15.473Z,24.98
2022-10-17T12:12:15.465Z,24.69
2022-10-17T12:13:15.445Z,24.89
2022-10-17T12:14:15.455Z,24.78
2022-10-17T12:15:15.423Z,24.88
2022-10-17T12:16:17.511Z,24.40
2022-10-17T12:17:15.416Z,24.02
2022-10-17T12:18:15.401Z,24.01
2022-10-17T12:19:15.660Z,23.93
2022-10-17T12:20:15.418Z,24.21
2022-10-17T12:21:15.378Z,24.19
2022-10-17T12:22:15.378Z,23.91
2022-10-17T12:23:15.351Z,23.63
2022-10-17T12:24:18.799Z,23.52
2022-10-17T12:25:15.340Z,23.32
2022-10-17T12:26:15.321Z,23.23
2022-10-17T12:27:15.311Z,23.79
2022-10-17T12:28:15.303Z,23.49
2022-10-17T12:29:15.302Z,23.29
2022-10-17T12:30:15.331Z,23.00
2022-10-17T12:31:15.283Z,22.33
2022-10-17T12:32:15.274Z,22.71
2022-10-17T12:33:15.265Z,22.81
2022-10-17T12:34:15.264Z,23.00
2022-10-17T12:35:15.242Z,22.42
2022-10-17T12:36:15.261Z,23.21
2022-10-17T12:37:15.275Z,23.00
2022-10-17T12:38:15.225Z,22.52
2022-10-17T12:39:15.225Z,22.80
2022-10-17T12:40:15.206Z,22.39
2022-10-17T12:41:15.207Z,22.31
2022-10-17T12:42:15.197Z,22.60
2022-10-17T12:43:15.189Z,22.80
2022-10-17T12:44:15.370Z,22.61
2022-10-17T12:45:15.157Z,22.51
2022-10-17T12:46:15.150Z,22.61
2022-10-17T12:47:15.210Z,22.61
2022-10-17T12:48:15.139Z,22.81
2022-10-17T12:49:15.149Z,22.81
2022-10-17T12:50:15.109Z,23.00
2022-10-17T12:51:34.908Z,22.64
2022-10-17T12:52:16.107Z,23.33
2022-10-17T12:53:17.052Z,23.03
2022-10-17T12:54:15.122Z,23.03
2022-10-17T12:55:15.182Z,23.32
2022-10-17T12:56:15.081Z,22.92